createdAt,value
2022-08-20T00:01:01.655Z,100.00
2022-08-20T00:03:33.445Z,100.00
2022-08-20T00:06:05.147Z,100.00
2022-08-20T00:08:34.149Z,100.00
2022-08-20T00:11:05.888Z,100.00
2022-08-20T00:13:38.167Z,100.00
2022-08-20T00:16:07.023Z,100.00
2022-08-20T00:18:37.878Z,100.00
2022-08-20T00:21:09.790Z,100.00
2022-08-20T00:23:39.242Z,100.00
2022-08-20T00:26:11.291Z,100.00
2022-08-20T00:28:40.738Z,100.00
2022-08-20T00:31:12.242Z,100.00
2022-08-20T00:33:41.346Z,100.00
2022-08-20T00:36:12.303Z,100.00
2022-08-20T00:38:43.802Z,100.00
2022-08-20T00:41:17.647Z,100.00
2022-08-20T00:43:49.310Z,100.00
2022-08-20T00:46:22.243Z,100.00
2022-08-20T00:49:01.791Z,100.00
2022-08-20T00:51:38.390Z,100.00
2022-08-20T00:54:11.130Z,100.00
2022-08-20T00:56:44.185Z,100.00
2022-08-20T00:59:17.083Z,100.00
2022-08-20T01:01:55.551Z,100.00
2022-08-20T01:04:26.727Z,100.00
2022-08-20T01:06:55.639Z,100.00
2022-08-20T01:09:50.036Z,100.00
2022-08-20T01:12:17.922Z,100.00
2022-08-20T01:14:48.116Z,100.00
2022-08-20T01:17:20.427Z,100.00
2022-08-20T01:19:53.863Z,100.00
2022-08-20T01:22:46.966Z,100.00
2022-08-20T01:25:25.170Z,100.00
2022-08-20T01:27:56.494Z,100.00
2022-08-20T01:30:28.622Z,100.00
2022-08-20T01:32:57.552Z,100.00
2022-08-20T01:35:26.831Z,100.00
2022-08-20T01:37:55.882Z,100.00
2022-08-20T01:40:41.078Z,100.00
2022-08-20T01:43:11.539Z,100.00
2022-08-20T01:45:43.182Z,100.00
2022-08-20T01:48:14.387Z,100.00
2022-08-20T01:50:49.040Z,100.00
2022-08-20T01:53:22.340Z,100.00
2022-08-20T01:55:51.343Z,100.00
2022-08-20T01:58:22.289Z,100.00
2022-08-20T02:00:50.870Z,100.00
2022-08-20T02:03:19.448Z,100.00
2022-08-20T02:05:48.031Z,100.00
2022-08-20T02:08:16.823Z,100.00
2022-08-20T02:10:46.458Z,100.00
2022-08-20T02:13:15.050Z,100.00
2022-08-20T02:15:45.212Z,100.00
2022-08-20T02:18:15.760Z,100.00
2022-08-20T02:20:46.164Z,100.00
2022-08-20T02:23:15.747Z,100.00
2022-08-20T02:25:47.589Z,100.00
2022-08-20T02:28:20.897Z,100.00
2022-08-20T02:30:53.849Z,100.00
2022-08-20T02:33:24.570Z,100.00
2022-08-20T02:35:56.662Z,100.00
2022-08-20T02:38:25.958Z,100.00
2022-08-20T02:40:54.534Z,100.00
2022-08-20T02:43:23.120Z,100.00
2022-08-20T02:45:53.172Z,100.00
2022-08-20T02:48:23.476Z,100.00
2022-08-20T02:50:55.571Z,100.00
2022-08-20T02:53:24.322Z,100.00
2022-08-20T02:55:53.555Z,100.00
2022-08-20T02:58:23.428Z,100.00
2022-08-20T03:00:53.653Z,100.00
2022-08-20T03:03:22.915Z,100.00
2022-08-20T03:05:53.609Z,100.00
2022-08-20T03:08:23.591Z,100.00
2022-08-20T03:10:53.161Z,100.00
2022-08-20T03:13:23.072Z,100.00
2022-08-20T03:15:58.588Z,100.00
2022-08-20T03:18:31.509Z,100.00
2022-08-20T03:21:00.556Z,100.00
2022-08-20T03:23:30.114Z,100.00
2022-08-20T03:25:59.066Z,100.00
2022-08-20T03:28:28.145Z,100.00
2022-08-20T03:30:59.600Z,100.00
2022-08-20T03:33:29.370Z,100.00
2022-08-20T03:35:58.839Z,100.00
2022-08-20T03:38:32.615Z,100.00
2022-08-20T03:41:03.104Z,100.00
2022-08-20T03:43:32.670Z,100.00
2022-08-20T03:46:03.050Z,100.00
2022-08-20T03:48:31.768Z,100.00
2022-08-20T03:51:01.143Z,100.00
2022-08-20T03:53:31.798Z,100.00
2022-08-20T03:56:04.494Z,100.00
2022-08-20T03:58:35.029Z,100.00
2022-08-20T04:04:12.141Z,100.00
2022-08-20T04:06:41.371Z,100.00
2022-08-20T04:09:11.656Z,100.00
2022-08-20T04:11:41.258Z,100.00
2022-08-20T04:14:11.049Z,100.00
2022-08-20T04:16:40.676Z,100.00
2022-08-20T04:19:10.903Z,100.00
2022-08-20T04:21:39.785Z,100.00
2022-08-20T04:24:08.811Z,100.00
2022-08-20T04:26:51.468Z,100.00
2022-08-20T04:29:20.069Z,100.00
2022-08-20T04:31:48.699Z,100.00
2022-08-20T04:34:19.664Z,100.00
2022-08-20T04:36:48.676Z,100.00
2022-08-20T04:39:17.478Z,100.00
2022-08-20T04:41:46.359Z,100.00
2022-08-20T04:44:14.982Z,100.00
2022-08-20T04:46:43.853Z,100.00
2022-08-20T04:49:12.904Z,100.00
2022-08-20T04:51:42.893Z,100.00
2022-08-20T04:54:14.593Z,100.00
2022-08-20T04:56:43.330Z,100.00
2022-08-20T04:59:11.901Z,100.00
2022-08-20T05:01:40.440Z,100.00
2022-08-20T05:04:09.046Z,100.00
2022-08-20T05:06:37.831Z,100.00
2022-08-20T05:09:07.776Z,100.00
2022-08-20T05:11:36.864Z,100.00
2022-08-20T05:14:08.977Z,100.00
2022-08-20T05:16:41.319Z,100.00
2022-08-20T05:19:12.418Z,100.00
2022-08-20T05:21:41.437Z,100.00
2022-08-20T05:24:12.167Z,100.00
2022-08-20T05:26:41.056Z,100.00
2022-08-20T05:29:09.846Z,100.00
2022-08-20T05:31:39.488Z,100.00
2022-08-20T05:34:11.334Z,100.00
2022-08-20T05:36:41.286Z,100.00
2022-08-20T05:39:12.424Z,100.00
2022-08-20T05:41:41.579Z,100.00
2022-08-20T05:44:13.823Z,100.00
2022-08-20T05:46:44.079Z,100.00
2022-08-20T05:49:15.726Z,100.00
2022-08-20T05:51:44.652Z,100.00
2022-08-20T05:54:15.166Z,100.00
2022-08-20T05:56:44.059Z,100.00
2022-08-20T05:59:14.181Z,100.00
2022-08-20T06:01:44.081Z,100.00
2022-08-20T06:04:28.778Z,100.00
2022-08-20T06:07:02.939Z,100.00
2022-08-20T06:09:33.461Z,100.00
2022-08-20T06:12:03.995Z,100.00
2022-08-20T06:14:34.167Z,100.00
2022-08-20T06:17:08.002Z,100.00
2022-08-20T06:19:38.015Z,100.00
2022-08-20T06:22:17.691Z,100.00
2022-08-20T06:24:51.898Z,100.00
2022-08-20T06:27:20.781Z,100.00
2022-08-20T06:29:50.016Z,100.00
2022-08-20T06:32:19.986Z,100.00
2022-08-20T06:35:02.313Z,100.00
2022-08-20T06:37:33.112Z,100.00
2022-08-20T06:40:07.243Z,100.00
2022-08-20T06:42:36.887Z,100.00
2022-08-20T06:45:06.199Z,97.52
2022-08-20T06:47:35.540Z,96.21
2022-08-20T06:50:04.075Z,91.13
2022-08-20T06:52:52.401Z,91.53
2022-08-20T06:55:23.226Z,91.03
2022-08-20T06:57:59.519Z,90.32
2022-08-20T07:00:29.352Z,88.46
2022-08-20T07:02:58.230Z,82.94
2022-08-20T07:05:26.938Z,83.01
2022-08-20T07:07:55.715Z,74.78
2022-08-20T07:10:27.227Z,71.28
2022-08-20T07:12:56.127Z,66.75
2022-08-20T07:15:27.215Z,62.73
2022-08-20T07:18:01.673Z,59.55
2022-08-20T07:20:31.892Z,57.39
2022-08-20T07:23:00.752Z,56.05
2022-08-20T07:25:33.808Z,54.53
2022-08-20T07:28:03.992Z,53.36
2022-08-20T07:30:56.528Z,52.41
2022-08-20T07:33:28.317Z,50.13
2022-08-20T07:35:57.558Z,49.40
2022-08-20T07:38:27.876Z,46.97
2022-08-20T07:41:00.107Z,46.06
2022-08-20T07:43:29.370Z,46.29
2022-08-20T07:46:01.250Z,43.41
2022-08-20T07:48:32.658Z,42.76
2022-08-20T07:51:22.586Z,42.69
2022-08-20T07:54:00.671Z,43.09
2022-08-20T07:56:30.698Z,43.06
2022-08-20T07:59:01.717Z,44.47
2022-08-20T08:01:32.726Z,42.35
2022-08-20T08:04:01.470Z,42.22
2022-08-20T08:06:32.044Z,40.83
2022-08-20T08:09:05.662Z,39.14
2022-08-20T08:11:38.814Z,40.01
2022-08-20T08:14:10.799Z,42.06
2022-08-20T08:16:40.414Z,41.15
2022-08-20T08:19:12.145Z,43.10
2022-08-20T08:21:41.437Z,41.77
2022-08-20T08:24:13.466Z,41.73
2022-08-20T08:26:45.651Z,39.20
2022-08-20T08:29:14.235Z,37.31
2022-08-20T08:31:42.834Z,35.71
2022-08-20T08:34:11.788Z,34.14
2022-08-20T08:36:40.851Z,33.95
2022-08-20T08:39:09.478Z,33.01
2022-08-20T08:41:47.533Z,32.06
2022-08-20T08:44:23.518Z,30.74
2022-08-20T08:46:56.756Z,28.69
2022-08-20T08:49:37.387Z,28.19
2022-08-20T08:52:11.805Z,30.11
2022-08-20T08:54:44.085Z,28.95
2022-08-20T08:57:12.850Z,28.19
2022-08-20T08:59:58.388Z,27.48
2022-08-20T09:02:32.345Z,26.55
2022-08-20T09:05:04.441Z,26.69
2022-08-20T09:07:34.859Z,26.23
2022-08-20T09:10:04.065Z,24.63
2022-08-20T09:12:33.398Z,25.45
2022-08-20T09:15:03.656Z,24.94
2022-08-20T09:17:32.688Z,24.23
2022-08-20T09:20:01.405Z,24.01
2022-08-20T09:22:31.076Z,24.43
2022-08-20T09:25:00.467Z,24.84
2022-08-20T09:27:29.836Z,24.36
2022-08-20T09:29:58.560Z,24.71
2022-08-20T09:32:28.781Z,24.74
2022-08-20T09:34:59.158Z,25.01
2022-08-20T09:37:35.089Z,24.95
2022-08-20T09:40:08.326Z,24.69
2022-08-20T09:42:41.672Z,27.95
2022-08-20T09:45:11.848Z,27.80
2022-08-20T09:47:56.630Z,26.06
2022-08-20T09:50:26.981Z,25.85
2022-08-20T09:52:56.919Z,25.19
2022-08-20T09:55:29.994Z,24.52
2022-08-20T09:57:59.216Z,23.30
2022-08-20T10:00:28.067Z,22.26
2022-08-20T10:02:58.291Z,21.82
2022-08-20T10:05:27.004Z,21.19
2022-08-20T10:07:55.859Z,20.82
2022-08-20T10:10:24.841Z,20.90
2022-08-20T10:12:55.003Z,20.21
2022-08-20T10:15:23.911Z,19.56
2022-08-20T10:17:53.105Z,19.95
2022-08-20T10:20:23.524Z,19.47
2022-08-20T10:22:52.568Z,20.30
2022-08-20T10:25:21.762Z,20.25
2022-08-20T10:27:50.529Z,19.69
2022-08-20T10:30:19.565Z,19.70
2022-08-20T10:32:50.189Z,18.72
2022-08-20T10:35:19.801Z,18.33
2022-08-20T10:37:50.162Z,19.14
2022-08-20T10:40:19.291Z,19.16
2022-08-20T10:42:48.060Z,18.72
2022-08-20T10:45:17.663Z,18.34
2022-08-20T10:47:46.783Z,17.70
2022-08-20T10:50:20.165Z,18.06
2022-08-20T10:52:50.463Z,18.73
2022-08-20T10:55:20.152Z,18.42
2022-08-20T10:57:51.395Z,17.65
2022-08-20T11:00:21.552Z,18.15
2022-08-20T11:02:52.226Z,18.94
2022-08-20T11:05:21.133Z,17.87
2022-08-20T11:07:59.816Z,17.55
2022-08-20T11:10:31.111Z,18.05
2022-08-20T11:12:59.984Z,18.33
2022-08-20T11:15:29.587Z,18.34
2022-08-20T11:17:58.616Z,20.08
2022-08-20T11:20:28.594Z,19.46
2022-08-20T11:23:06.486Z,20.89
2022-08-20T11:25:35.375Z,22.32
2022-08-20T11:28:04.823Z,20.84
2022-08-20T11:30:36.843Z,20.54
2022-08-20T11:33:09.323Z,19.63
2022-08-20T11:35:48.448Z,18.53
2022-08-20T11:38:19.516Z,18.37
2022-08-20T11:40:48.435Z,19.86
2022-08-20T11:43:18.271Z,18.68
2022-08-20T11:45:49.374Z,18.65
2022-08-20T11:48:18.376Z,17.85
2022-08-20T11:50:47.453Z,17.92
2022-08-20T11:53:22.349Z,17.10
2022-08-20T11:55:51.519Z,18.45
2022-08-20T11:58:20.283Z,18.84
2022-08-20T12:00:49.249Z,19.71
2022-08-20T12:03:22.315Z,20.88
2022-08-20T12:05:51.240Z,23.95
2022-08-20T12:08:27.021Z,24.91
2022-08-20T12:10:58.053Z,26.76
2022-08-20T12:13:30.746Z,27.41
2022-08-20T12:16:16.772Z,28.71
2022-08-20T12:18:46.446Z,29.41
2022-08-20T12:21:15.214Z,28.48
2022-08-20T12:23:45.760Z,28.91
2022-08-20T12:26:16.859Z,30.04
2022-08-20T12:28:45.570Z,29.34
2022-08-20T12:31:14.258Z,30.22
2022-08-20T12:33:43.064Z,30.18
2022-08-20T12:36:12.340Z,29.85
2022-08-20T12:38:40.991Z,29.83
2022-08-20T12:41:11.130Z,29.52
2022-08-20T12:43:44.040Z,30.51
2022-08-20T12:46:12.819Z,31.52
2022-08-20T12:48:42.182Z,30.85
2022-08-20T12:51:11.491Z,34.05
2022-08-20T12:53:40.259Z,35.06
2022-08-20T12:56:10.792Z,35.49
2022-08-20T12:58:41.838Z,35.81
2022-08-20T13:01:10.475Z,35.01
2022-08-20T13:03:43.136Z,36.51
2022-08-20T13:06:13.932Z,35.24
2022-08-20T13:08:43.051Z,37.18
2022-08-20T13:11:13.042Z,37.63
2022-08-20T13:13:43.744Z,38.12
2022-08-20T13:16:12.419Z,38.98
2022-08-20T13:18:41.366Z,38.14
2022-08-20T13:21:10.307Z,38.61
2022-08-20T13:23:38.886Z,38.14
2022-08-20T13:26:07.800Z,38.19
2022-08-20T13:28:37.798Z,38.64
2022-08-20T13:31:06.574Z,37.55
2022-08-20T13:33:35.229Z,37.01
2022-08-20T13:36:03.898Z,36.71
2022-08-20T13:38:32.473Z,32.64
2022-08-20T13:41:01.026Z,35.72
2022-08-20T13:43:29.725Z,36.99
2022-08-20T13:45:59.807Z,35.01
2022-08-20T13:48:28.318Z,37.08
2022-08-20T13:50:57.010Z,37.77
2022-08-20T13:53:26.003Z,36.00
2022-08-20T13:55:54.630Z,34.77
2022-08-20T13:58:24.049Z,34.46
2022-08-20T14:00:52.623Z,36.07
2022-08-20T14:03:25.295Z,36.73
2022-08-20T14:05:54.513Z,36.90
2022-08-20T14:08:25.512Z,38.09
2022-08-20T14:10:54.242Z,37.96
2022-08-20T14:13:25.915Z,39.61
2022-08-20T14:15:55.299Z,39.58
2022-08-20T14:18:25.355Z,39.96
2022-08-20T14:20:53.975Z,40.60
2022-08-20T14:23:22.882Z,39.19
2022-08-20T14:25:51.612Z,39.77
2022-08-20T14:28:22.386Z,38.43
2022-08-20T14:30:53.483Z,38.55
2022-08-20T14:33:25.040Z,38.88
2022-08-20T14:35:54.682Z,39.09
2022-08-20T14:38:23.297Z,39.79
2022-08-20T14:40:51.992Z,39.67
2022-08-20T14:43:20.766Z,39.46
2022-08-20T14:45:49.333Z,39.89
2022-08-20T14:48:17.951Z,39.92
2022-08-20T14:50:47.937Z,39.41
2022-08-20T14:53:16.513Z,39.65
2022-08-20T14:55:45.143Z,39.32
2022-08-20T14:58:15.436Z,39.85
2022-08-20T15:00:44.829Z,41.38
2022-08-20T15:03:14.547Z,41.58
2022-08-20T15:05:43.985Z,41.21
2022-08-20T15:08:14.255Z,42.47
2022-08-20T15:10:43.031Z,41.80
2022-08-20T15:13:11.649Z,40.82
2022-08-20T15:15:40.834Z,41.05
2022-08-20T15:18:09.615Z,40.39
2022-08-20T15:20:38.795Z,39.36
2022-08-20T15:23:07.546Z,38.02
2022-08-20T15:25:38.468Z,38.62
2022-08-20T15:28:08.869Z,38.01
2022-08-20T15:30:38.587Z,37.39
2022-08-20T15:33:07.649Z,37.75
2022-08-20T15:35:36.819Z,38.44
2022-08-20T15:38:05.449Z,38.77
2022-08-20T15:40:35.457Z,39.81
2022-08-20T15:43:06.421Z,39.51
2022-08-20T15:45:35.967Z,39.26
2022-08-20T15:48:11.271Z,39.53
2022-08-20T15:50:55.874Z,39.68
2022-08-20T15:53:30.061Z,39.94
2022-08-20T15:56:05.628Z,40.64
2022-08-20T15:58:40.937Z,40.85
2022-08-20T16:01:24.866Z,40.76
2022-08-20T16:04:46.030Z,41.08
2022-08-20T16:07:21.029Z,41.57
2022-08-20T16:10:04.083Z,41.74
2022-08-20T16:12:35.340Z,41.86
2022-08-20T16:15:10.162Z,42.08
2022-08-20T16:17:45.146Z,41.92
2022-08-20T16:20:32.892Z,41.80
2022-08-20T16:23:04.926Z,41.54
2022-08-20T16:25:46.774Z,41.96
2022-08-20T16:28:24.631Z,42.63
2022-08-20T16:31:03.349Z,42.04
2022-08-20T16:33:38.329Z,41.63
2022-08-20T16:36:12.712Z,42.56
2022-08-20T16:38:48.141Z,42.14
2022-08-20T16:41:23.043Z,42.42
2022-08-20T16:43:54.940Z,43.07
2022-08-20T16:46:29.033Z,43.02
2022-08-20T16:48:59.995Z,42.75
2022-08-20T16:51:36.793Z,42.96
2022-08-20T16:54:06.656Z,42.65
2022-08-20T16:56:37.785Z,43.84
2022-08-20T16:59:09.518Z,42.95
2022-08-20T17:01:40.223Z,43.60
2022-08-20T17:04:09.500Z,44.18
2022-08-20T17:06:44.723Z,44.04
2022-08-20T17:09:22.319Z,42.78
2022-08-20T17:11:53.087Z,42.19
2022-08-20T17:14:21.724Z,42.83
2022-08-20T17:16:53.952Z,42.29
2022-08-20T17:19:29.279Z,42.90
2022-08-20T17:22:08.751Z,44.15
2022-08-20T17:24:37.870Z,43.95
2022-08-20T17:27:13.500Z,44.61
2022-08-20T17:30:20.248Z,44.98
2022-08-20T17:33:01.823Z,45.26
2022-08-20T17:35:34.275Z,46.18
2022-08-20T17:38:04.234Z,46.03
2022-08-20T17:40:46.002Z,45.98
2022-08-20T17:43:27.705Z,45.87
2022-08-20T17:45:57.639Z,46.37
2022-08-20T17:48:33.613Z,46.11
2022-08-20T17:51:10.819Z,46.14
2022-08-20T17:53:44.716Z,46.12
2022-08-20T17:56:21.063Z,45.62
2022-08-20T17:58:54.992Z,45.86
2022-08-20T18:01:26.043Z,46.03
2022-08-20T18:03:56.246Z,45.95
2022-08-20T18:06:32.360Z,46.57
2022-08-20T18:09:06.009Z,47.77
2022-08-20T18:11:40.630Z,48.10
2022-08-20T18:14:36.107Z,48.74
2022-08-20T18:17:15.638Z,50.23
2022-08-20T18:20:10.537Z,52.38
2022-08-20T18:22:48.138Z,54.17
2022-08-20T18:25:29.308Z,56.67
2022-08-20T18:28:04.848Z,59.75
2022-08-20T18:30:34.468Z,62.86
2022-08-20T18:33:09.015Z,66.47
2022-08-20T18:35:45.819Z,69.55
2022-08-20T18:38:28.503Z,72.33
2022-08-20T18:41:08.295Z,76.06
2022-08-20T18:43:36.975Z,77.71
2022-08-20T18:46:21.700Z,79.42
2022-08-20T18:48:57.104Z,81.40
2022-08-20T18:51:33.991Z,83.29
2022-08-20T18:54:02.639Z,85.21
2022-08-20T18:56:38.321Z,86.17
2022-08-20T18:59:13.190Z,87.87
2022-08-20T19:01:44.016Z,90.29
2022-08-20T19:04:27.638Z,92.49
2022-08-20T19:07:02.970Z,94.22
2022-08-20T19:09:56.145Z,96.19
2022-08-20T19:12:42.119Z,97.69
2022-08-20T19:15:16.931Z,99.32
2022-08-20T19:17:56.998Z,100.00
2022-08-20T19:20:29.447Z,100.00
2022-08-20T19:23:06.808Z,100.00
2022-08-20T19:25:38.778Z,100.00
2022-08-20T19:28:16.227Z,100.00
2022-08-20T19:30:45.157Z,100.00
2022-08-20T19:33:14.074Z,100.00
2022-08-20T19:35:42.921Z,100.00
2022-08-20T19:38:17.945Z,100.00
2022-08-20T19:40:46.974Z,100.00
2022-08-20T19:43:21.886Z,100.00
2022-08-20T19:45:53.043Z,100.00
2022-08-20T19:48:40.571Z,100.00
2022-08-20T19:51:16.350Z,100.00
2022-08-20T19:53:49.855Z,100.00
2022-08-20T19:56:21.544Z,100.00
2022-08-20T19:59:00.149Z,100.00
2022-08-20T20:01:29.669Z,100.00
2022-08-20T20:04:01.054Z,100.00
2022-08-20T20:06:33.980Z,100.00
2022-08-20T20:09:06.915Z,100.00
2022-08-20T20:11:38.957Z,100.00
2022-08-20T20:14:10.474Z,100.00
2022-08-20T20:16:41.183Z,100.00
2022-08-20T20:19:28.615Z,100.00
2022-08-20T20:22:16.104Z,100.00
2022-08-20T20:25:00.454Z,100.00
2022-08-20T20:27:30.160Z,100.00
2022-08-20T20:30:03.300Z,100.00
2022-08-20T20:32:34.135Z,100.00
2022-08-20T20:35:06.353Z,100.00
2022-08-20T20:37:48.866Z,100.00
2022-08-20T20:40:26.277Z,100.00
2022-08-20T20:43:06.210Z,100.00
2022-08-20T20:45:37.629Z,100.00
2022-08-20T20:48:18.327Z,100.00
2022-08-20T20:50:50.100Z,100.00
2022-08-20T20:53:51.021Z,100.00
2022-08-20T20:56:33.076Z,100.00
2022-08-20T20:59:06.148Z,100.00
2022-08-20T21:01:49.555Z,100.00
2022-08-20T21:04:20.562Z,100.00
2022-08-20T21:06:49.886Z,100.00
2022-08-20T21:09:20.834Z,100.00
2022-08-20T21:11:51.314Z,100.00
2022-08-20T21:14:20.209Z,100.00
2022-08-20T21:16:49.280Z,100.00
2022-08-20T21:19:18.887Z,100.00
2022-08-20T21:21:47.576Z,100.00
2022-08-20T21:24:16.260Z,100.00
2022-08-20T21:26:45.485Z,100.00
2022-08-20T21:29:18.551Z,100.00
2022-08-20T21:31:47.690Z,100.00
2022-08-20T21:34:17.571Z,100.00
2022-08-20T21:36:46.641Z,100.00
2022-08-20T21:39:15.564Z,100.00
2022-08-20T21:41:45.466Z,100.00
2022-08-20T21:44:21.323Z,100.00
2022-08-20T21:46:50.824Z,100.00
2022-08-20T21:49:20.830Z,100.00
2022-08-20T21:51:50.114Z,100.00
2022-08-20T21:54:20.042Z,100.00
2022-08-20T21:56:53.199Z,100.00
2022-08-20T21:59:25.348Z,100.00
2022-08-20T22:01:54.121Z,100.00
2022-08-20T22:04:23.295Z,100.00
2022-08-20T22:06:52.306Z,100.00
2022-08-20T22:09:21.100Z,100.00
2022-08-20T22:11:53.993Z,100.00
2022-08-20T22:14:25.254Z,100.00
2022-08-20T22:16:53.888Z,100.00
2022-08-20T22:19:22.774Z,100.00
2022-08-20T22:21:54.214Z,100.00
2022-08-20T22:24:24.306Z,100.00
2022-08-20T22:26:52.938Z,100.00
2022-08-20T22:29:21.968Z,100.00
2022-08-20T22:31:52.088Z,100.00
2022-08-20T22:34:21.885Z,100.00
2022-08-20T22:37:00.263Z,100.00
2022-08-20T22:39:29.250Z,100.00
2022-08-20T22:41:59.853Z,100.00
2022-08-20T22:44:28.708Z,100.00
2022-08-20T22:47:04.023Z,100.00
2022-08-20T22:49:35.298Z,100.00
2022-08-20T22:52:04.511Z,100.00
2022-08-20T22:54:34.382Z,100.00
2022-08-20T22:57:03.379Z,100.00
2022-08-20T22:59:32.976Z,100.00
2022-08-20T23:02:20.678Z,100.00
2022-08-20T23:04:49.370Z,100.00
2022-08-20T23:07:21.125Z,100.00
2022-08-20T23:09:49.802Z,100.00
2022-08-20T23:12:18.682Z,100.00
2022-08-20T23:14:47.368Z,100.00
2022-08-20T23:17:19.671Z,100.00
2022-08-20T23:19:49.699Z,100.00
2022-08-20T23:22:19.556Z,100.00
2022-08-20T23:24:48.942Z,100.00
2022-08-20T23:27:19.573Z,100.00
2022-08-20T23:29:48.998Z,100.00
2022-08-20T23:32:19.744Z,100.00
2022-08-20T23:34:48.604Z,100.00
2022-08-20T23:37:19.291Z,100.00
2022-08-20T23:39:49.918Z,100.00
2022-08-20T23:42:18.886Z,100.00
2022-08-20T23:44:47.514Z,100.00
2022-08-20T23:47:23.094Z,100.00
2022-08-20T23:49:52.073Z,100.00
2022-08-20T23:52:20.708Z,100.00
2022-08-20T23:54:49.425Z,100.00
2022-08-20T23:57:21.095Z,100.00
2022-08-20T23:59:52.930Z,100.00
